Greenbush, Wisconsin
Current Conditions -  °F | °C
As of 4:53 AM on Friday 19 Dec 2014 (Local Time) from KSBM Reporting Station
Overcast Overcast  
Wind Chill: 13°   Ceiling: 3000
Heat Index: 22°   Visibility: 10mi
Dew Point: 18°   Wind: 8mph
Humidity: 85%   Direction: 290°WNW
Pressure: 30.27"   Gusts: NA
Location:  43.78°N, 88.08°W
Report Text: KSBM 191053Z AUTO 29007KT 10SM OVC030 M06/M08 A3027 RMK AO2 SLP261 T10561078
Loading
Personal Weather Stations






























Interactive Weather Map New forecast layout! Learn more

10-Day Weather Forecast

Advertisements
Track Severe Weather on mobile